createdAt,value
2017-02-11T00:01:08.056Z,0
2017-02-11T00:02:18.724Z,0
2017-02-11T00:03:29.393Z,0
2017-02-11T00:04:40.063Z,0
2017-02-11T00:05:50.733Z,0
2017-02-11T00:07:01.396Z,0
2017-02-11T00:08:12.064Z,0
2017-02-11T00:09:22.338Z,0
2017-02-11T00:10:33.006Z,0
2017-02-11T00:11:43.293Z,0
2017-02-11T00:12:53.958Z,0
2017-02-11T00:14:04.619Z,0
2017-02-11T00:15:15.284Z,0
2017-02-11T00:16:25.950Z,0
2017-02-11T00:17:36.618Z,0
2017-02-11T00:18:47.292Z,0
2017-02-11T00:19:57.962Z,0
2017-02-11T00:21:08.635Z,0
2017-02-11T00:22:19.313Z,0
2017-02-11T00:23:29.984Z,0
2017-02-11T00:24:40.659Z,0
2017-02-11T00:25:51.323Z,0
2017-02-11T00:27:01.988Z,0
2017-02-11T00:28:12.651Z,0
2017-02-11T00:29:23.315Z,0
2017-02-11T00:30:33.982Z,0
2017-02-11T00:31:44.646Z,0
2017-02-11T00:32:55.310Z,0
2017-02-11T00:34:05.976Z,0
2017-02-11T00:35:16.639Z,0
2017-02-11T00:36:27.304Z,0
2017-02-11T00:37:37.972Z,0
2017-02-11T00:38:48.648Z,0
2017-02-11T00:39:59.313Z,0
2017-02-11T00:41:10.331Z,0
2017-02-11T00:42:21.002Z,0
2017-02-11T00:43:31.665Z,0
2017-02-11T00:44:42.322Z,0
2017-02-11T00:45:52.595Z,0
2017-02-11T00:47:03.264Z,0
2017-02-11T00:48:13.533Z,0
2017-02-11T00:49:24.197Z,0
2017-02-11T00:50:34.861Z,0
2017-02-11T00:51:45.526Z,0
2017-02-11T00:52:56.190Z,0
2017-02-11T00:54:06.853Z,0
2017-02-11T00:55:17.516Z,0
2017-02-11T00:56:28.182Z,0
2017-02-11T00:57:38.849Z,0
2017-02-11T00:58:49.525Z,0
2017-02-11T01:00:00.210Z,0
2017-02-11T01:01:10.493Z,0
2017-02-11T01:02:21.161Z,0
2017-02-11T01:03:31.836Z,0
2017-02-11T01:04:42.506Z,0
2017-02-11T01:05:52.780Z,0
2017-02-11T01:07:03.447Z,0
2017-02-11T01:08:13.717Z,0
2017-02-11T01:09:24.390Z,0
2017-02-11T01:10:34.668Z,0
2017-02-11T01:11:45.338Z,0
2017-02-11T01:12:56.016Z,0
2017-02-11T01:14:06.687Z,0
2017-02-11T01:15:16.954Z,0
2017-02-11T01:16:27.622Z,0
2017-02-11T01:17:38.293Z,0
2017-02-11T01:18:48.954Z,0
2017-02-11T01:19:59.618Z,0
2017-02-11T01:21:10.283Z,0
2017-02-11T01:22:20.155Z,0
2017-02-11T01:23:30.816Z,0
2017-02-11T01:24:41.085Z,0
2017-02-11T01:25:51.750Z,0
2017-02-11T01:27:02.010Z,0
2017-02-11T01:28:12.278Z,0
2017-02-11T01:29:22.567Z,0
2017-02-11T01:30:33.240Z,0
2017-02-11T01:31:43.906Z,0
2017-02-11T01:32:54.216Z,0
2017-02-11T01:34:04.885Z,0
2017-02-11T01:35:15.157Z,0
2017-02-11T01:36:25.830Z,0
2017-02-11T01:37:36.497Z,0
2017-02-11T01:38:47.163Z,0
2017-02-11T01:39:57.832Z,0
2017-02-11T01:41:08.498Z,0
2017-02-11T01:42:19.160Z,0
2017-02-11T01:43:29.827Z,0
2017-02-11T01:44:40.492Z,0
2017-02-11T01:45:51.257Z,0
2017-02-11T01:47:01.925Z,0
2017-02-11T01:48:12.194Z,0
2017-02-11T01:49:22.877Z,0
2017-02-11T01:50:33.546Z,0
2017-02-11T01:51:44.210Z,0
2017-02-11T01:52:54.879Z,0
2017-02-11T01:54:05.544Z,0
2017-02-11T01:55:15.417Z,0
2017-02-11T01:56:26.086Z,0
2017-02-11T01:57:36.361Z,0
2017-02-11T01:58:47.023Z,0
2017-02-11T01:59:57.698Z,0
2017-02-11T02:01:08.365Z,0
2017-02-11T02:02:18.633Z,0
2017-02-11T02:03:29.299Z,0
2017-02-11T02:04:39.571Z,0
2017-02-11T02:05:50.234Z,0
2017-02-11T02:07:00.897Z,0
2017-02-11T02:08:11.174Z,0
2017-02-11T02:09:21.839Z,0
2017-02-11T02:10:32.510Z,0
2017-02-11T02:11:43.180Z,0
2017-02-11T02:12:53.866Z,0
2017-02-11T02:14:04.534Z,0
2017-02-11T02:15:15.207Z,0
2017-02-11T02:16:25.899Z,0
2017-02-11T02:17:36.565Z,0
2017-02-11T02:18:46.831Z,0
2017-02-11T02:19:57.502Z,0
2017-02-11T02:21:08.179Z,0
2017-02-11T02:22:18.448Z,0
2017-02-11T02:23:29.112Z,0
2017-02-11T02:24:39.784Z,0
2017-02-11T02:25:50.058Z,0
2017-02-11T02:27:00.721Z,0
2017-02-11T02:28:10.592Z,0
2017-02-11T02:29:20.858Z,0
2017-02-11T02:30:31.520Z,0
2017-02-11T02:31:42.186Z,0
2017-02-11T02:32:52.854Z,0
2017-02-11T02:34:03.526Z,0
2017-02-11T02:35:14.194Z,0
2017-02-11T02:36:24.889Z,0
2017-02-11T02:37:35.560Z,0
2017-02-11T02:38:45.831Z,0
2017-02-11T02:39:56.101Z,0
2017-02-11T02:41:06.768Z,0
2017-02-11T02:42:17.440Z,0
2017-02-11T02:43:28.136Z,0
2017-02-11T02:44:38.809Z,0
2017-02-11T02:45:49.098Z,0
2017-02-11T02:46:59.764Z,0
2017-02-11T02:48:10.432Z,0
2017-02-11T02:49:20.700Z,0
2017-02-11T02:50:31.363Z,0
2017-02-11T02:51:42.030Z,0
2017-02-11T02:52:52.699Z,0
2017-02-11T02:54:03.376Z,0
2017-02-11T02:55:13.651Z,0
2017-02-11T02:56:24.327Z,0
2017-02-11T02:57:34.993Z,0
2017-02-11T02:58:45.657Z,0
2017-02-11T02:59:56.345Z,0
2017-02-11T03:01:07.013Z,0
2017-02-11T03:02:17.285Z,0
2017-02-11T03:03:27.957Z,0
2017-02-11T03:04:38.622Z,0
2017-02-11T03:05:49.284Z,0
2017-02-11T03:06:59.952Z,0
2017-02-11T03:08:10.624Z,0
2017-02-11T03:09:21.293Z,0
2017-02-11T03:10:31.976Z,0
2017-02-11T03:11:42.643Z,0
2017-02-11T03:12:53.329Z,0
2017-02-11T03:14:03.747Z,0
2017-02-11T03:15:14.035Z,0
2017-02-11T03:16:24.317Z,0
2017-02-11T03:17:34.591Z,0
2017-02-11T03:18:45.292Z,0
2017-02-11T03:19:56.260Z,0
2017-02-11T03:21:06.537Z,0
2017-02-11T03:22:16.843Z,0
2017-02-11T03:23:27.511Z,0
2017-02-11T03:24:38.182Z,0
2017-02-11T03:25:48.863Z,0
2017-02-11T03:26:59.524Z,0
2017-02-11T03:28:09.397Z,0
2017-02-11T03:29:19.666Z,0
2017-02-11T03:30:30.331Z,0
2017-02-11T03:31:40.994Z,0
2017-02-11T03:32:51.659Z,0
2017-02-11T03:34:02.345Z,0
2017-02-11T03:35:13.022Z,0
2017-02-11T03:36:23.685Z,0
2017-02-11T03:37:34.351Z,0
2017-02-11T03:38:45.020Z,0
2017-02-11T03:39:55.687Z,0
2017-02-11T03:41:06.355Z,0
2017-02-11T03:42:17.022Z,0
2017-02-11T03:43:27.686Z,0
2017-02-11T03:44:38.355Z,0
2017-02-11T03:45:49.028Z,0
2017-02-11T03:46:59.695Z,0
2017-02-11T03:48:09.964Z,0
2017-02-11T03:49:19.843Z,0
2017-02-11T03:50:30.518Z,0
2017-02-11T03:51:41.188Z,0
2017-02-11T03:52:51.857Z,0
2017-02-11T03:54:02.536Z,0
2017-02-11T03:55:13.203Z,0
2017-02-11T03:56:23.867Z,0
2017-02-11T03:57:34.534Z,0
2017-02-11T03:58:45.205Z,0
2017-02-11T03:59:55.870Z,0
2017-02-11T04:01:06.539Z,0
2017-02-11T04:02:17.204Z,0
2017-02-11T04:03:27.864Z,0
2017-02-11T04:04:38.531Z,0
2017-02-11T04:05:49.199Z,0
2017-02-11T04:06:59.868Z,0
2017-02-11T04:08:10.539Z,0
2017-02-11T04:09:21.221Z,0
2017-02-11T04:10:31.498Z,0
2017-02-11T04:11:42.165Z,0
2017-02-11T04:12:52.835Z,0
2017-02-11T04:14:03.504Z,0
2017-02-11T04:15:14.175Z,0
2017-02-11T04:16:24.444Z,0
2017-02-11T04:17:35.108Z,0
2017-02-11T04:18:45.777Z,0
2017-02-11T04:19:56.443Z,0
2017-02-11T04:21:07.114Z,0
2017-02-11T04:22:17.378Z,0
2017-02-11T04:23:28.037Z,0
2017-02-11T04:24:38.701Z,0
2017-02-11T04:25:49.371Z,0
2017-02-11T04:27:00.041Z,0
2017-02-11T04:28:10.313Z,0
2017-02-11T04:29:20.584Z,0
2017-02-11T04:30:31.248Z,0
2017-02-11T04:31:41.920Z,0
2017-02-11T04:32:52.592Z,0
2017-02-11T04:34:03.278Z,0
2017-02-11T04:35:13.947Z,0
2017-02-11T04:36:24.616Z,0
2017-02-11T04:37:35.279Z,0
2017-02-11T04:38:45.972Z,0
2017-02-11T04:39:56.637Z,0
2017-02-11T04:41:07.301Z,0
2017-02-11T04:42:17.962Z,0
2017-02-11T04:43:28.631Z,0
2017-02-11T04:44:39.293Z,0
2017-02-11T04:45:49.957Z,0
2017-02-11T04:47:00.619Z,0
2017-02-11T04:48:10.898Z,0
2017-02-11T04:49:20.768Z,0
2017-02-11T04:50:31.433Z,0
2017-02-11T04:51:42.102Z,0
2017-02-11T04:52:52.772Z,0
2017-02-11T04:54:03.443Z,0
2017-02-11T04:55:14.113Z,0
2017-02-11T04:56:24.787Z,0
2017-02-11T04:57:35.458Z,0
2017-02-11T04:58:46.124Z,0
2017-02-11T04:59:56.789Z,0
2017-02-11T05:01:07.458Z,0
2017-02-11T05:02:17.329Z,0
2017-02-11T05:03:28.002Z,0
2017-02-11T05:04:38.673Z,0
2017-02-11T05:05:49.345Z,0
2017-02-11T05:07:00.048Z,0
2017-02-11T05:08:10.717Z,0
2017-02-11T05:09:21.383Z,0
2017-02-11T05:10:31.646Z,0
2017-02-11T05:11:42.308Z,0
2017-02-11T05:12:52.974Z,0
2017-02-11T05:14:03.646Z,0
2017-02-11T05:15:14.314Z,0
2017-02-11T05:16:24.980Z,0
2017-02-11T05:17:35.249Z,0
2017-02-11T05:18:45.914Z,0
2017-02-11T05:19:56.581Z,0
2017-02-11T05:21:07.251Z,0
2017-02-11T05:22:17.519Z,0
2017-02-11T05:23:28.184Z,0
2017-02-11T05:24:38.844Z,0
2017-02-11T05:25:49.507Z,0
2017-02-11T05:27:00.175Z,0
2017-02-11T05:28:10.838Z,0
2017-02-11T05:29:21.508Z,0
2017-02-11T05:30:32.210Z,0
2017-02-11T05:31:42.915Z,0
2017-02-11T05:32:53.583Z,0
2017-02-11T05:34:04.246Z,0
2017-02-11T05:35:14.514Z,0
2017-02-11T05:36:25.189Z,0
2017-02-11T05:37:35.890Z,0
2017-02-11T05:38:46.555Z,0
2017-02-11T05:39:56.427Z,0
2017-02-11T05:41:07.098Z,0
2017-02-11T05:42:17.369Z,0
2017-02-11T05:43:28.035Z,0
2017-02-11T05:44:38.700Z,0
2017-02-11T05:45:49.371Z,0
2017-02-11T05:47:00.064Z,0
2017-02-11T05:48:10.733Z,0
2017-02-11T05:49:21.410Z,0
2017-02-11T05:50:32.072Z,0
2017-02-11T05:51:42.732Z,0
2017-02-11T05:52:53.398Z,0
2017-02-11T05:54:04.066Z,0
2017-02-11T05:55:14.734Z,0
2017-02-11T05:56:25.406Z,0
2017-02-11T05:57:36.071Z,0
2017-02-11T05:58:46.739Z,0
2017-02-11T05:59:57.408Z,0
2017-02-11T06:01:08.076Z,0
2017-02-11T06:02:17.948Z,0
2017-02-11T06:03:28.616Z,0
2017-02-11T06:04:39.285Z,0
2017-02-11T06:05:49.960Z,0
2017-02-11T06:07:00.633Z,0
2017-02-11T06:08:11.307Z,0
2017-02-11T06:09:21.978Z,0
2017-02-11T06:10:32.666Z,0
2017-02-11T06:11:43.331Z,0
2017-02-11T06:12:53.597Z,0
2017-02-11T06:14:04.260Z,0
2017-02-11T06:15:14.927Z,0
2017-02-11T06:16:25.595Z,0
2017-02-11T06:17:36.264Z,0
2017-02-11T06:18:46.928Z,0
2017-02-11T06:19:57.595Z,0
2017-02-11T06:21:08.260Z,0
2017-02-11T06:22:18.537Z,0
2017-02-11T06:23:29.199Z,0
2017-02-11T06:24:39.477Z,0
2017-02-11T06:25:50.141Z,4
2017-02-11T06:27:00.812Z,4
2017-02-11T06:28:11.479Z,0
2017-02-11T06:29:22.146Z,0
2017-02-11T06:30:32.819Z,4
2017-02-11T06:31:43.089Z,4
2017-02-11T06:32:53.765Z,4
2017-02-11T06:34:04.433Z,4
2017-02-11T06:35:14.701Z,4
2017-02-11T06:36:25.364Z,4
2017-02-11T06:37:36.046Z,4
2017-02-11T06:38:46.712Z,8
2017-02-11T06:39:57.380Z,8
2017-02-11T06:41:08.041Z,8
2017-02-11T06:42:17.923Z,12
2017-02-11T06:43:28.593Z,12
2017-02-11T06:44:39.262Z,16
2017-02-11T06:45:49.929Z,16
2017-02-11T06:47:00.589Z,16
2017-02-11T06:48:10.857Z,20
2017-02-11T06:49:21.527Z,24
2017-02-11T06:50:32.198Z,28
2017-02-11T06:51:42.869Z,32
2017-02-11T06:52:53.536Z,32
2017-02-11T06:54:04.213Z,36
2017-02-11T06:55:14.478Z,40
2017-02-11T06:56:25.140Z,48
2017-02-11T06:57:35.809Z,52
2017-02-11T06:58:46.480Z,60
2017-02-11T06:59:57.162Z,64
2017-02-11T07:01:07.838Z,72
2017-02-11T07:02:17.714Z,80
2017-02-11T07:03:28.379Z,88
2017-02-11T07:04:39.060Z,100
2017-02-11T07:05:49.728Z,108
2017-02-11T07:07:00.392Z,116
2017-02-11T07:08:11.059Z,124
2017-02-11T07:09:21.730Z,136
2017-02-11T07:10:32.021Z,148
2017-02-11T07:11:42.691Z,164
2017-02-11T07:12:53.357Z,176
2017-02-11T07:14:04.019Z,184
2017-02-11T07:15:14.292Z,200
2017-02-11T07:16:24.954Z,216
2017-02-11T07:17:35.257Z,232
2017-02-11T07:18:45.930Z,244
2017-02-11T07:19:56.598Z,256
2017-02-11T07:21:07.261Z,268
2017-02-11T07:22:17.533Z,284
2017-02-11T07:23:28.194Z,300
2017-02-11T07:24:38.884Z,316
2017-02-11T07:25:49.545Z,340
2017-02-11T07:27:00.249Z,360
2017-02-11T07:28:10.936Z,384
2017-02-11T07:29:21.203Z,404
2017-02-11T07:30:31.472Z,428
2017-02-11T07:31:42.136Z,448
2017-02-11T07:32:52.802Z,468
2017-02-11T07:34:03.470Z,496
2017-02-11T07:35:14.138Z,516
2017-02-11T07:36:24.803Z,540
2017-02-11T07:37:35.470Z,564
2017-02-11T07:38:46.134Z,588
2017-02-11T07:39:56.800Z,616
2017-02-11T07:41:07.464Z,652
2017-02-11T07:42:17.729Z,696
2017-02-11T07:43:28.393Z,732
2017-02-11T07:44:39.056Z,768
2017-02-11T07:45:49.728Z,800
2017-02-11T07:47:00.394Z,836
2017-02-11T07:48:10.668Z,876
2017-02-11T07:49:21.335Z,916
2017-02-11T07:50:32.003Z,956
2017-02-11T07:51:42.668Z,1000
2017-02-11T07:52:53.335Z,1040
2017-02-11T07:54:04.006Z,1092
2017-02-11T07:55:14.679Z,1140
2017-02-11T07:56:25.350Z,1192
2017-02-11T07:57:36.010Z,1256
2017-02-11T07:58:46.679Z,1316
2017-02-11T07:59:57.340Z,1392
2017-02-11T08:01:08.005Z,1468
2017-02-11T08:02:18.271Z,1544
2017-02-11T08:03:28.932Z,1620
2017-02-11T08:04:39.603Z,1704
2017-02-11T08:05:50.276Z,1788
2017-02-11T08:07:00.947Z,1876
2017-02-11T08:08:11.610Z,1960
2017-02-11T08:09:22.289Z,2048
2017-02-11T08:10:32.960Z,2108
2017-02-11T08:11:43.638Z,2184
2017-02-11T08:12:54.316Z,2228
2017-02-11T08:14:04.981Z,2280
2017-02-11T08:15:15.651Z,2324
2017-02-11T08:16:25.916Z,2380
2017-02-11T08:17:36.583Z,2416
2017-02-11T08:18:47.265Z,2480
2017-02-11T08:19:57.958Z,2548
2017-02-11T08:21:08.631Z,2624
2017-02-11T08:22:19.298Z,2704
2017-02-11T08:23:29.976Z,2784
2017-02-11T08:24:40.646Z,2868
2017-02-11T08:25:51.308Z,2932
2017-02-11T08:27:01.992Z,2988
2017-02-11T08:28:12.660Z,3012
2017-02-11T08:29:22.934Z,3096
2017-02-11T08:30:33.597Z,3160
2017-02-11T08:31:44.263Z,3228
2017-02-11T08:32:54.928Z,3292
2017-02-11T08:34:05.605Z,3360
2017-02-11T08:35:15.904Z,3416
2017-02-11T08:36:26.592Z,3472
2017-02-11T08:37:37.260Z,3528
2017-02-11T08:38:47.936Z,3584
2017-02-11T08:39:58.636Z,3660
2017-02-11T08:41:09.330Z,3740
2017-02-11T08:42:19.601Z,3852
2017-02-11T08:43:30.274Z,3984
2017-02-11T08:44:40.945Z,4096
2017-02-11T08:45:51.618Z,4208
2017-02-11T08:47:02.322Z,4316
2017-02-11T08:48:12.994Z,4416
2017-02-11T08:49:23.701Z,4520
2017-02-11T08:50:34.368Z,4628
2017-02-11T08:51:45.044Z,4744
2017-02-11T08:52:55.713Z,4868
2017-02-11T08:54:06.396Z,5012
2017-02-11T08:55:17.065Z,5172
2017-02-11T08:56:27.726Z,5336
2017-02-11T08:57:38.386Z,5484
2017-02-11T08:58:49.056Z,5608
2017-02-11T08:59:59.728Z,5732
2017-02-11T09:01:10.003Z,5808
2017-02-11T09:02:20.679Z,5860
2017-02-11T09:03:31.351Z,5908
2017-02-11T09:04:42.020Z,5968
2017-02-11T09:05:52.699Z,6036
2017-02-11T09:07:03.399Z,6080
2017-02-11T09:08:14.120Z,6100
2017-02-11T09:09:24.789Z,6136
2017-02-11T09:10:35.470Z,6192
2017-02-11T09:11:46.144Z,6228
2017-02-11T09:12:56.818Z,6208
2017-02-11T09:14:07.089Z,6140
2017-02-11T09:15:17.362Z,6044
2017-02-11T09:16:27.238Z,5940
2017-02-11T09:17:37.905Z,5848
2017-02-11T09:18:48.174Z,5792
2017-02-11T09:19:58.843Z,5764
2017-02-11T09:21:09.519Z,5768
2017-02-11T09:22:19.790Z,5788
2017-02-11T09:23:30.461Z,5840
2017-02-11T09:24:41.139Z,5872
2017-02-11T09:25:51.811Z,5836
2017-02-11T09:27:02.512Z,5744
2017-02-11T09:28:13.184Z,5632
2017-02-11T09:29:23.454Z,5544
2017-02-11T09:30:34.121Z,5480
2017-02-11T09:31:44.784Z,5452
2017-02-11T09:32:55.459Z,5464
2017-02-11T09:34:06.132Z,5504
2017-02-11T09:35:16.406Z,5536
2017-02-11T09:36:26.675Z,5568
2017-02-11T09:37:37.358Z,5592
2017-02-11T09:38:48.032Z,5616
2017-02-11T09:39:58.697Z,5640
2017-02-11T09:41:09.368Z,5652
2017-02-11T09:42:20.035Z,5652
2017-02-11T09:43:30.703Z,5640
2017-02-11T09:44:41.369Z,5604
2017-02-11T09:45:52.038Z,5556
2017-02-11T09:47:02.312Z,5512
2017-02-11T09:48:12.192Z,5480
2017-02-11T09:49:22.859Z,5460
2017-02-11T09:50:33.131Z,5472
2017-02-11T09:51:43.798Z,5524
2017-02-11T09:52:54.074Z,5564
2017-02-11T09:54:04.754Z,5604
2017-02-11T09:55:14.674Z,5656
2017-02-11T09:56:25.343Z,5688
2017-02-11T09:57:36.013Z,5712
2017-02-11T09:58:46.286Z,5696
2017-02-11T10:00:01.968Z,5656
2017-02-11T10:01:12.636Z,5608
2017-02-11T10:02:22.912Z,5552
2017-02-11T10:03:33.182Z,5496
2017-02-11T10:04:43.847Z,5448
2017-02-11T10:05:54.125Z,5456
2017-02-11T10:07:04.796Z,5540
2017-02-11T10:08:15.469Z,5664
2017-02-11T10:09:26.144Z,5824
2017-02-11T10:10:36.812Z,5972
2017-02-11T10:11:47.493Z,6092
2017-02-11T10:12:58.164Z,6164
2017-02-11T10:14:08.838Z,6200
2017-02-11T10:15:19.513Z,6236
2017-02-11T10:16:30.186Z,6284
2017-02-11T10:17:40.504Z,6312
2017-02-11T10:18:50.836Z,6352
2017-02-11T10:20:01.112Z,6404
2017-02-11T10:21:11.787Z,6484
2017-02-11T10:22:22.472Z,6580
2017-02-11T10:23:33.151Z,6676
2017-02-11T10:24:43.830Z,6772
2017-02-11T10:25:54.513Z,6856
2017-02-11T10:27:05.189Z,6904
2017-02-11T10:28:15.907Z,6916
2017-02-11T10:29:26.195Z,6916
2017-02-11T10:30:36.870Z,6916
2017-02-11T10:31:47.541Z,6944
2017-02-11T10:32:58.208Z,6968
2017-02-11T10:34:08.886Z,6960
2017-02-11T10:35:19.558Z,6944
2017-02-11T10:36:29.836Z,6916
2017-02-11T10:37:40.508Z,6876
2017-02-11T10:38:50.784Z,6844
2017-02-11T10:40:00.664Z,6832
2017-02-11T10:41:11.342Z,6868
2017-02-11T10:42:22.014Z,6928
2017-02-11T10:43:32.688Z,6976
2017-02-11T10:44:43.359Z,7020
2017-02-11T10:45:53.245Z,7048
2017-02-11T10:47:03.529Z,7076
2017-02-11T10:48:13.806Z,7088
2017-02-11T10:49:24.473Z,7080
2017-02-11T10:50:35.149Z,7060
2017-02-11T10:51:45.423Z,7040
2017-02-11T10:52:56.094Z,7016
2017-02-11T10:54:06.763Z,7004
2017-02-11T10:55:17.432Z,7016
2017-02-11T10:56:28.097Z,7056
2017-02-11T10:57:38.765Z,7104
2017-02-11T10:58:49.440Z,7172
2017-02-11T11:00:00.138Z,7240
2017-02-11T11:01:10.805Z,7324
2017-02-11T11:02:21.479Z,7400
2017-02-11T11:03:32.151Z,7484
2017-02-11T11:04:42.819Z,7540
2017-02-11T11:05:53.489Z,7572
2017-02-11T11:07:04.163Z,7568
2017-02-11T11:08:14.433Z,7552
2017-02-11T11:09:25.101Z,7528
2017-02-11T11:10:35.779Z,7492
2017-02-11T11:11:46.457Z,7452
2017-02-11T11:12:57.128Z,7444
2017-02-11T11:14:07.798Z,7492
2017-02-11T11:15:17.280Z,7612
2017-02-11T11:16:27.958Z,7832
2017-02-11T11:17:38.652Z,8112
2017-02-11T11:18:49.322Z,8400
2017-02-11T11:19:59.996Z,8728
2017-02-11T11:21:10.668Z,9068
2017-02-11T11:22:20.938Z,9272
2017-02-11T11:23:31.606Z,9276
2017-02-11T11:24:42.276Z,9188
2017-02-11T11:25:52.947Z,8616
2017-02-11T11:27:03.618Z,8484
2017-02-11T11:28:14.287Z,8412
2017-02-11T11:29:24.955Z,8312
2017-02-11T11:30:35.221Z,8220
2017-02-11T11:31:45.532Z,8120
2017-02-11T11:32:55.813Z,8060
2017-02-11T11:34:06.490Z,8084
2017-02-11T11:35:17.163Z,8132
2017-02-11T11:36:27.869Z,8212
2017-02-11T11:37:38.144Z,8264
2017-02-11T11:38:48.819Z,8268
2017-02-11T11:39:59.514Z,8232
2017-02-11T11:41:09.786Z,8200
2017-02-11T11:42:20.058Z,8180
2017-02-11T11:43:30.736Z,8140
2017-02-11T11:44:41.407Z,8116
2017-02-11T11:45:52.073Z,8128
2017-02-11T11:47:02.753Z,8152
2017-02-11T11:48:13.067Z,8196
2017-02-11T11:49:23.337Z,8240
2017-02-11T11:50:34.005Z,8272
2017-02-11T11:51:44.285Z,8304
2017-02-11T11:52:54.953Z,8336
2017-02-11T11:54:05.225Z,8376
2017-02-11T11:55:15.900Z,8412
2017-02-11T11:56:26.175Z,8400
2017-02-11T11:57:36.848Z,8392
2017-02-11T11:58:47.518Z,8380
2017-02-11T11:59:58.193Z,8356
2017-02-11T12:01:08.872Z,8336
2017-02-11T12:02:19.147Z,8324
2017-02-11T12:03:29.418Z,8336
2017-02-11T12:04:40.091Z,8352
2017-02-11T12:05:50.762Z,8308
2017-02-11T12:07:01.430Z,8224
2017-02-11T12:08:12.107Z,8140
2017-02-11T12:09:22.776Z,8100
2017-02-11T12:10:33.051Z,8112
2017-02-11T12:11:43.722Z,8180
2017-02-11T12:12:54.395Z,8264
2017-02-11T12:14:05.060Z,8364
2017-02-11T12:15:14.933Z,8496
2017-02-11T12:16:25.607Z,8656
2017-02-11T12:17:36.279Z,8820
2017-02-11T12:18:46.557Z,8960
2017-02-11T12:19:57.233Z,9084
2017-02-11T12:21:07.907Z,9232
2017-02-11T12:22:18.183Z,9308
2017-02-11T12:23:28.061Z,9588
2017-02-11T12:24:38.737Z,11388
2017-02-11T12:25:49.048Z,14848
2017-02-11T12:26:59.730Z,12288
2017-02-11T12:28:10.036Z,10660
2017-02-11T12:29:20.314Z,11964
2017-02-11T12:30:30.984Z,13448
2017-02-11T12:31:41.259Z,15584
2017-02-11T12:32:51.930Z,11980
2017-02-11T12:34:02.600Z,11240
2017-02-11T12:35:12.881Z,11728
2017-02-11T12:36:23.558Z,11408
2017-02-11T12:37:34.234Z,11376
2017-02-11T12:38:44.907Z,11212
2017-02-11T12:39:55.183Z,10924
2017-02-11T12:41:05.459Z,10588
2017-02-11T12:42:15.736Z,10264
2017-02-11T12:43:26.414Z,10060
2017-02-11T12:44:36.690Z,9888
2017-02-11T12:45:47.362Z,9704
2017-02-11T12:46:58.038Z,9900
2017-02-11T12:48:08.719Z,11024
2017-02-11T12:49:18.991Z,14772
2017-02-11T12:50:29.665Z,14252
2017-02-11T12:51:39.939Z,11072
2017-02-11T12:52:50.611Z,9876
2017-02-11T12:54:01.289Z,8776
2017-02-11T12:55:11.171Z,9152
2017-02-11T12:56:21.842Z,11720
2017-02-11T12:57:32.121Z,15680
2017-02-11T12:58:42.795Z,17440
2017-02-11T12:59:53.469Z,17440
2017-02-11T13:01:04.142Z,17280
2017-02-11T13:02:14.812Z,17088
2017-02-11T13:03:25.090Z,15712
2017-02-11T13:04:35.370Z,12024
2017-02-11T13:05:46.045Z,11336
2017-02-11T13:06:56.727Z,14784
2017-02-11T13:08:07.405Z,16704
2017-02-11T13:09:18.081Z,17280
2017-02-11T13:10:28.757Z,17120
2017-02-11T13:11:39.036Z,16736
2017-02-11T13:12:49.715Z,16128
2017-02-11T13:13:59.996Z,15680
2017-02-11T13:15:10.275Z,15840
2017-02-11T13:16:20.559Z,15136
2017-02-11T13:17:31.239Z,14400
2017-02-11T13:18:41.915Z,13168
2017-02-11T13:19:52.588Z,10668
2017-02-11T13:21:02.875Z,8796
2017-02-11T13:22:13.555Z,8860
2017-02-11T13:23:24.241Z,9720
2017-02-11T13:24:34.918Z,9860
2017-02-11T13:25:45.733Z,11260
2017-02-11T13:26:56.423Z,12160
2017-02-11T13:28:07.104Z,10780
2017-02-11T13:29:17.847Z,10292
2017-02-11T13:30:28.567Z,11440
2017-02-11T13:31:39.251Z,11468
2017-02-11T13:32:49.930Z,10192
2017-02-11T13:34:00.624Z,8664
2017-02-11T13:35:11.351Z,7844
2017-02-11T13:36:22.031Z,7636
2017-02-11T13:37:32.310Z,7328
2017-02-11T13:38:42.995Z,7328
2017-02-11T13:39:53.682Z,7888
2017-02-11T13:41:04.362Z,8400
2017-02-11T13:42:14.257Z,8112
2017-02-11T13:43:24.930Z,7832
2017-02-11T13:44:35.610Z,8976
2017-02-11T13:45:46.291Z,11096
2017-02-11T13:46:57.037Z,10980
2017-02-11T13:48:07.757Z,10492
2017-02-11T13:49:18.035Z,10008
2017-02-11T13:50:28.316Z,11020
2017-02-11T13:51:38.998Z,11740
2017-02-11T13:52:49.675Z,12840
2017-02-11T13:54:00.353Z,10104
2017-02-11T13:55:10.235Z,8500
2017-02-11T13:56:20.521Z,9276
2017-02-11T13:57:31.197Z,7732
2017-02-11T13:58:41.873Z,6456
2017-02-11T13:59:52.146Z,8988
2017-02-11T14:01:02.889Z,8496
2017-02-11T14:02:13.563Z,6960
2017-02-11T14:03:23.832Z,6848
2017-02-11T14:04:34.110Z,6040
2017-02-11T14:05:44.782Z,8780
2017-02-11T14:06:55.804Z,11584
2017-02-11T14:08:06.477Z,12248
2017-02-11T14:09:16.755Z,12404
2017-02-11T14:10:27.057Z,11872
2017-02-11T14:11:37.734Z,9832
2017-02-11T14:12:48.403Z,7484
2017-02-11T14:13:59.076Z,6920
2017-02-11T14:15:09.751Z,6528
2017-02-11T14:16:20.031Z,6360
2017-02-11T14:17:30.709Z,6472
2017-02-11T14:18:41.381Z,6492
2017-02-11T14:19:52.055Z,6232
2017-02-11T14:21:02.730Z,6020
2017-02-11T14:22:13.005Z,6332
2017-02-11T14:23:23.684Z,5980
2017-02-11T14:24:33.959Z,5408
2017-02-11T14:25:44.630Z,5152
2017-02-11T14:26:55.311Z,4996
2017-02-11T14:28:05.976Z,4824
2017-02-11T14:29:16.650Z,4632
2017-02-11T14:30:27.312Z,4424
2017-02-11T14:31:37.586Z,4212
2017-02-11T14:32:48.255Z,4036
2017-02-11T14:33:58.927Z,3892
2017-02-11T14:35:09.624Z,3780
2017-02-11T14:36:19.905Z,3744
2017-02-11T14:37:30.580Z,3716
2017-02-11T14:38:41.247Z,3684
2017-02-11T14:39:51.915Z,3620
2017-02-11T14:41:02.631Z,3560
2017-02-11T14:42:13.301Z,3492
2017-02-11T14:43:23.976Z,3396
2017-02-11T14:44:34.297Z,3304
2017-02-11T14:45:44.964Z,3196
2017-02-11T14:46:55.637Z,3116
2017-02-11T14:48:06.301Z,3048
2017-02-11T14:49:16.971Z,2976
2017-02-11T14:50:27.650Z,2968
2017-02-11T14:51:38.318Z,3004
2017-02-11T14:52:48.982Z,3024
2017-02-11T14:53:59.650Z,2984
2017-02-11T14:55:09.927Z,2936
2017-02-11T14:56:20.200Z,2920
2017-02-11T14:57:30.905Z,2884
2017-02-11T14:58:41.576Z,2844
2017-02-11T14:59:52.244Z,2804
2017-02-11T15:01:02.919Z,2760
2017-02-11T15:02:12.794Z,2716
2017-02-11T15:03:22.668Z,2668
2017-02-11T15:04:32.938Z,2616
2017-02-11T15:05:43.605Z,2560
2017-02-11T15:06:54.274Z,2492
2017-02-11T15:08:04.949Z,2420
2017-02-11T15:09:15.619Z,2352
2017-02-11T15:10:25.891Z,2288
2017-02-11T15:11:36.163Z,2232
2017-02-11T15:12:46.438Z,2168
2017-02-11T15:13:57.107Z,2112
2017-02-11T15:15:07.383Z,2052
2017-02-11T15:16:18.047Z,1996
2017-02-11T15:17:27.925Z,1940
2017-02-11T15:18:38.199Z,1880
2017-02-11T15:19:48.872Z,1824
2017-02-11T15:20:59.536Z,1764
2017-02-11T15:22:09.810Z,1708
2017-02-11T15:23:20.484Z,1652
2017-02-11T15:24:31.154Z,1592
2017-02-11T15:25:41.826Z,1532
2017-02-11T15:26:52.548Z,1472
2017-02-11T15:28:03.219Z,1412
2017-02-11T15:29:13.820Z,1352
2017-02-11T15:30:24.487Z,1284
2017-02-11T15:31:35.156Z,1224
2017-02-11T15:32:45.825Z,1168
2017-02-11T15:33:56.492Z,1112
2017-02-11T15:35:07.163Z,1056
2017-02-11T15:36:17.040Z,1000
2017-02-11T15:37:27.715Z,948
2017-02-11T15:38:38.382Z,896
2017-02-11T15:39:49.059Z,848
2017-02-11T15:40:59.740Z,800
2017-02-11T15:42:10.032Z,752
2017-02-11T15:43:20.302Z,708
2017-02-11T15:44:30.974Z,668
2017-02-11T15:45:41.633Z,624
2017-02-11T15:46:52.298Z,580
2017-02-11T15:48:02.964Z,544
2017-02-11T15:49:13.240Z,504
2017-02-11T15:50:23.907Z,468
2017-02-11T15:51:34.581Z,436
2017-02-11T15:52:45.248Z,404
2017-02-11T15:53:55.911Z,376
2017-02-11T15:55:06.183Z,344
2017-02-11T15:56:16.853Z,316
2017-02-11T15:57:27.516Z,292
2017-02-11T15:58:38.190Z,268
2017-02-11T15:59:48.862Z,244
2017-02-11T16:00:59.527Z,224
2017-02-11T16:02:09.809Z,204
2017-02-11T16:03:20.473Z,184
2017-02-11T16:04:31.139Z,168
2017-02-11T16:05:41.805Z,148
2017-02-11T16:06:52.474Z,136
2017-02-11T16:08:03.145Z,124
2017-02-11T16:09:13.823Z,108
2017-02-11T16:10:24.496Z,96
2017-02-11T16:11:35.166Z,84
2017-02-11T16:12:45.828Z,76
2017-02-11T16:13:56.095Z,68
2017-02-11T16:15:06.758Z,60
2017-02-11T16:16:17.427Z,52
2017-02-11T16:17:28.089Z,44
2017-02-11T16:18:38.357Z,40
2017-02-11T16:19:49.024Z,36
2017-02-11T16:20:59.695Z,28
2017-02-11T16:22:10.363Z,24